sensor_id;sensor_type;location;lat;lon;timestamp;pressure;altitude;pressure_sealevel;temperature;humidity
19128;BME280;9696;53.686;10.094;2023-04-28T00:00:57;101729.34;;;4.50;100.00
19128;BME280;9696;53.686;10.094;2023-04-28T00:03:26;101722.44;;;4.49;100.00
19128;BME280;9696;53.686;10.094;2023-04-28T00:05:55;101720.69;;;4.50;100.00
19128;BME280;9696;53.686;10.094;2023-04-28T00:08:25;101713.75;;;4.50;100.00
19128;BME280;9696;53.686;10.094;2023-04-28T00:10:54;101718.78;;;4.53;100.00
19128;BME280;9696;53.686;10.094;2023-04-28T00:13:24;101710.84;;;4.56;100.00
19128;BME280;9696;53.686;10.094;2023-04-28T00:15:54;101715.91;;;4.59;100.00
19128;BME280;9696;53.686;10.094;2023-04-28T00:18:23;101712.53;;;4.57;100.00
19128;BME280;9696;53.686;10.094;2023-04-28T00:20:52;101711.00;;;4.53;100.00
19128;BME280;9696;53.686;10.094;2023-04-28T00:23:21;101712.66;;;4.54;100.00
19128;BME280;9696;53.686;10.094;2023-04-28T00:25:51;101704.06;;;4.54;100.00
19128;BME280;9696;53.686;10.094;2023-04-28T00:28:20;101704.81;;;4.56;100.00
19128;BME280;9696;53.686;10.094;2023-04-28T00:31:09;101699.47;;;4.59;100.00
19128;BME280;9696;53.686;10.094;2023-04-28T00:33:39;101704.88;;;4.54;100.00
19128;BME280;9696;53.686;10.094;2023-04-28T00:36:09;101698.06;;;4.52;100.00
19128;BME280;9696;53.686;10.094;2023-04-28T00:38:38;101700.88;;;4.47;100.00
19128;BME280;9696;53.686;10.094;2023-04-28T00:41:09;101693.78;;;4.51;100.00
19128;BME280;9696;53.686;10.094;2023-04-28T00:43:46;101691.47;;;4.45;100.00
19128;BME280;9696;53.686;10.094;2023-04-28T00:46:20;101696.81;;;4.42;100.00
19128;BME280;9696;53.686;10.094;2023-04-28T00:48:51;101691.19;;;4.32;100.00
19128;BME280;9696;53.686;10.094;2023-04-28T00:51:20;101683.59;;;4.27;100.00
19128;BME280;9696;53.686;10.094;2023-04-28T00:53:50;101680.31;;;4.24;100.00
19128;BME280;9696;53.686;10.094;2023-04-28T00:56:19;101689.00;;;4.23;100.00
19128;BME280;9696;53.686;10.094;2023-04-28T00:58:49;101676.00;;;4.23;100.00
19128;BME280;9696;53.686;10.094;2023-04-28T01:01:19;101680.00;;;4.11;100.00
19128;BME280;9696;53.686;10.094;2023-04-28T01:03:49;101683.78;;;4.04;100.00
19128;BME280;9696;53.686;10.094;2023-04-28T01:06:19;101678.41;;;3.89;100.00
19128;BME280;9696;53.686;10.094;2023-04-28T01:08:51;101673.31;;;3.87;100.00
19128;BME280;9696;53.686;10.094;2023-04-28T01:11:20;101678.00;;;3.79;100.00
19128;BME280;9696;53.686;10.094;2023-04-28T01:14:15;101680.78;;;3.74;100.00
19128;BME280;9696;53.686;10.094;2023-04-28T01:16:46;101675.84;;;3.68;100.00
19128;BME280;9696;53.686;10.094;2023-04-28T01:19:19;101672.66;;;3.62;100.00
19128;BME280;9696;53.686;10.094;2023-04-28T01:21:49;101687.56;;;3.57;100.00
19128;BME280;9696;53.686;10.094;2023-04-28T01:24:24;101680.13;;;3.49;100.00
19128;BME280;9696;53.686;10.094;2023-04-28T01:26:54;101680.72;;;3.36;100.00
19128;BME280;9696;53.686;10.094;2023-04-28T01:29:23;101684.22;;;3.35;100.00
19128;BME280;9696;53.686;10.094;2023-04-28T01:31:53;101682.56;;;3.32;100.00
19128;BME280;9696;53.686;10.094;2023-04-28T01:34:22;101675.56;;;3.34;100.00
19128;BME280;9696;53.686;10.094;2023-04-28T01:36:51;101678.22;;;3.32;100.00
19128;BME280;9696;53.686;10.094;2023-04-28T01:39:21;101668.97;;;3.27;100.00
19128;BME280;9696;53.686;10.094;2023-04-28T01:41:51;101667.53;;;3.20;100.00
19128;BME280;9696;53.686;10.094;2023-04-28T01:44:20;101668.66;;;3.13;100.00
19128;BME280;9696;53.686;10.094;2023-04-28T01:46:49;101670.72;;;3.05;100.00
19128;BME280;9696;53.686;10.094;2023-04-28T01:49:19;101668.97;;;3.05;100.00
19128;BME280;9696;53.686;10.094;2023-04-28T01:51:48;101671.53;;;3.07;100.00
19128;BME280;9696;53.686;10.094;2023-04-28T01:54:17;101670.50;;;3.11;100.00
19128;BME280;9696;53.686;10.094;2023-04-28T01:56:46;101662.94;;;3.05;100.00
19128;BME280;9696;53.686;10.094;2023-04-28T01:59:19;101651.88;;;3.01;100.00
19128;BME280;9696;53.686;10.094;2023-04-28T02:01:48;101659.59;;;3.03;100.00
19128;BME280;9696;53.686;10.094;2023-04-28T02:04:17;101656.50;;;2.93;100.00
19128;BME280;9696;53.686;10.094;2023-04-28T02:06:46;101656.59;;;2.92;100.00
19128;BME280;9696;53.686;10.094;2023-04-28T02:09:16;101653.88;;;2.73;100.00
19128;BME280;9696;53.686;10.094;2023-04-28T02:11:45;101661.63;;;2.73;100.00
19128;BME280;9696;53.686;10.094;2023-04-28T02:14:14;101660.88;;;2.71;100.00
19128;BME280;9696;53.686;10.094;2023-04-28T02:16:45;101657.91;;;2.58;100.00
19128;BME280;9696;53.686;10.094;2023-04-28T02:19:14;101650.25;;;2.55;100.00
19128;BME280;9696;53.686;10.094;2023-04-28T02:21:43;101654.53;;;2.56;100.00
19128;BME280;9696;53.686;10.094;2023-04-28T02:24:13;101648.75;;;2.50;100.00
19128;BME280;9696;53.686;10.094;2023-04-28T02:26:43;101653.34;;;2.42;100.00
19128;BME280;9696;53.686;10.094;2023-04-28T02:29:12;101639.94;;;2.32;100.00
19128;BME280;9696;53.686;10.094;2023-04-28T02:31:41;101642.53;;;2.32;100.00
19128;BME280;9696;53.686;10.094;2023-04-28T02:34:13;101638.38;;;2.28;100.00
19128;BME280;9696;53.686;10.094;2023-04-28T02:36:43;101640.97;;;2.28;100.00
19128;BME280;9696;53.686;10.094;2023-04-28T02:39:12;101634.13;;;2.25;100.00
19128;BME280;9696;53.686;10.094;2023-04-28T02:41:41;101637.94;;;2.17;100.00
19128;BME280;9696;53.686;10.094;2023-04-28T02:44:10;101639.50;;;2.21;100.00
19128;BME280;9696;53.686;10.094;2023-04-28T02:46:39;101631.91;;;2.16;100.00
19128;BME280;9696;53.686;10.094;2023-04-28T02:49:09;101632.75;;;2.17;100.00
19128;BME280;9696;53.686;10.094;2023-04-28T02:51:39;101624.34;;;2.10;100.00
19128;BME280;9696;53.686;10.094;2023-04-28T02:54:08;101622.06;;;2.03;100.00
19128;BME280;9696;53.686;10.094;2023-04-28T02:56:38;101619.63;;;1.98;100.00
19128;BME280;9696;53.686;10.094;2023-04-28T02:59:07;101613.59;;;1.98;100.00
19128;BME280;9696;53.686;10.094;2023-04-28T03:01:36;101608.78;;;1.88;100.00
19128;BME280;9696;53.686;10.094;2023-04-28T03:04:06;101611.25;;;1.92;100.00
19128;BME280;9696;53.686;10.094;2023-04-28T03:06:35;101607.81;;;1.91;100.00
19128;BME280;9696;53.686;10.094;2023-04-28T03:09:06;101604.19;;;1.97;100.00
19128;BME280;9696;53.686;10.094;2023-04-28T03:11:35;101599.56;;;2.05;100.00
19128;BME280;9696;53.686;10.094;2023-04-28T03:14:05;101596.31;;;2.00;100.00
19128;BME280;9696;53.686;10.094;2023-04-28T03:16:34;101586.72;;;2.02;100.00
19128;BME280;9696;53.686;10.094;2023-04-28T03:19:03;101585.66;;;2.07;100.00
19128;BME280;9696;53.686;10.094;2023-04-28T03:21:32;101578.75;;;2.08;100.00
19128;BME280;9696;53.686;10.094;2023-04-28T03:24:01;101574.34;;;2.10;100.00
19128;BME280;9696;53.686;10.094;2023-04-28T03:26:34;101577.28;;;2.24;100.00
19128;BME280;9696;53.686;10.094;2023-04-28T03:29:04;101570.34;;;2.24;100.00
19128;BME280;9696;53.686;10.094;2023-04-28T03:31:33;101574.69;;;2.24;100.00
19128;BME280;9696;53.686;10.094;2023-04-28T03:34:03;101570.28;;;2.26;100.00
19128;BME280;9696;53.686;10.094;2023-04-28T03:36:32;101566.78;;;2.27;100.00
19128;BME280;9696;53.686;10.094;2023-04-28T03:39:08;101575.34;;;2.29;100.00
19128;BME280;9696;53.686;10.094;2023-04-28T03:41:39;101566.84;;;2.25;100.00
19128;BME280;9696;53.686;10.094;2023-04-28T03:44:37;101555.47;;;2.29;100.00
19128;BME280;9696;53.686;10.094;2023-04-28T03:47:07;101557.84;;;2.35;100.00
19128;BME280;9696;53.686;10.094;2023-04-28T03:49:37;101549.34;;;2.32;100.00
19128;BME280;9696;53.686;10.094;2023-04-28T03:52:06;101545.78;;;2.34;100.00
19128;BME280;9696;53.686;10.094;2023-04-28T03:54:35;101539.66;;;2.37;100.00
19128;BME280;9696;53.686;10.094;2023-04-28T03:57:06;101544.88;;;2.35;100.00
19128;BME280;9696;53.686;10.094;2023-04-28T03:59:35;101542.75;;;2.45;100.00
19128;BME280;9696;53.686;10.094;2023-04-28T04:02:04;101529.00;;;2.45;100.00
19128;BME280;9696;53.686;10.094;2023-04-28T04:04:33;101534.41;;;2.38;100.00
19128;BME280;9696;53.686;10.094;2023-04-28T04:07:03;101537.59;;;2.45;100.00
19128;BME280;9696;53.686;10.094;2023-04-28T04:09:33;101530.56;;;2.49;100.00
19128;BME280;9696;53.686;10.094;2023-04-28T04:12:02;101526.81;;;2.56;100.00
19128;BME280;9696;53.686;10.094;2023-04-28T04:14:32;101527.53;;;2.59;100.00
19128;BME280;9696;53.686;10.094;2023-04-28T04:17:02;101523.13;;;2.61;100.00
19128;BME280;9696;53.686;10.094;2023-04-28T04:19:31;101519.44;;;2.67;100.00
19128;BME280;9696;53.686;10.094;2023-04-28T04:22:00;101517.38;;;2.75;100.00
19128;BME280;9696;53.686;10.094;2023-04-28T04:24:30;101519.78;;;2.79;100.00
19128;BME280;9696;53.686;10.094;2023-04-28T04:26:59;101511.75;;;2.85;100.00
19128;BME280;9696;53.686;10.094;2023-04-28T04:29:35;101505.53;;;2.90;100.00
19128;BME280;9696;53.686;10.094;2023-04-28T04:32:09;101511.16;;;2.99;100.00
19128;BME280;9696;53.686;10.094;2023-04-28T04:34:38;101509.81;;;3.11;100.00
19128;BME280;9696;53.686;10.094;2023-04-28T04:37:07;101504.63;;;3.11;100.00
19128;BME280;9696;53.686;10.094;2023-04-28T04:39:42;101495.66;;;3.18;100.00
19128;BME280;9696;53.686;10.094;2023-04-28T04:42:12;101492.16;;;3.19;100.00
19128;BME280;9696;53.686;10.094;2023-04-28T04:45:11;101489.81;;;3.33;100.00
19128;BME280;9696;53.686;10.094;2023-04-28T04:47:41;101487.91;;;3.37;100.00
19128;BME280;9696;53.686;10.094;2023-04-28T04:50:11;101480.41;;;3.30;100.00
19128;BME280;9696;53.686;10.094;2023-04-28T04:52:41;101486.41;;;3.51;100.00
19128;BME280;9696;53.686;10.094;2023-04-28T04:55:10;101483.38;;;3.60;100.00
19128;BME280;9696;53.686;10.094;2023-04-28T04:57:41;101480.22;;;3.72;100.00
19128;BME280;9696;53.686;10.094;2023-04-28T05:00:19;101468.44;;;3.84;100.00
19128;BME280;9696;53.686;10.094;2023-04-28T05:02:49;101462.19;;;3.88;100.00
19128;BME280;9696;53.686;10.094;2023-04-28T05:05:19;101463.94;;;3.88;100.00
19128;BME280;9696;53.686;10.094;2023-04-28T05:08:05;101465.25;;;3.96;100.00
19128;BME280;9696;53.686;10.094;2023-04-28T05:10:35;101459.44;;;4.10;100.00
19128;BME280;9696;53.686;10.094;2023-04-28T05:13:04;101458.22;;;4.17;100.00
19128;BME280;9696;53.686;10.094;2023-04-28T05:15:35;101445.53;;;4.28;100.00
19128;BME280;9696;53.686;10.094;2023-04-28T05:18:27;101448.44;;;4.39;100.00
19128;BME280;9696;53.686;10.094;2023-04-28T05:20:56;101445.41;;;4.65;100.00
19128;BME280;9696;53.686;10.094;2023-04-28T05:23:26;101440.88;;;5.19;100.00
19128;BME280;9696;53.686;10.094;2023-04-28T05:25:55;101439.75;;;5.40;100.00
19128;BME280;9696;53.686;10.094;2023-04-28T05:28:25;101432.88;;;5.70;100.00
19128;BME280;9696;53.686;10.094;2023-04-28T05:30:57;101428.56;;;5.69;100.00
19128;BME280;9696;53.686;10.094;2023-04-28T05:33:26;101428.16;;;5.93;100.00
19128;BME280;9696;53.686;10.094;2023-04-28T05:35:55;101428.63;;;6.31;100.00
19128;BME280;9696;53.686;10.094;2023-04-28T05:38:24;101416.44;;;6.31;100.00
19128;BME280;9696;53.686;10.094;2023-04-28T05:40:54;101422.81;;;6.55;100.00
19128;BME280;9696;53.686;10.094;2023-04-28T05:43:24;101408.31;;;6.80;100.00
19128;BME280;9696;53.686;10.094;2023-04-28T05:45:54;101414.94;;;6.99;100.00
19128;BME280;9696;53.686;10.094;2023-04-28T05:48:24;101417.66;;;7.12;100.00
19128;BME280;9696;53.686;10.094;2023-04-28T05:50:54;101413.75;;;7.05;100.00
19128;BME280;9696;53.686;10.094;2023-04-28T05:53:24;101417.06;;;7.49;100.00
19128;BME280;9696;53.686;10.094;2023-04-28T05:55:53;101402.09;;;7.92;100.00
19128;BME280;9696;53.686;10.094;2023-04-28T05:58:22;101405.50;;;7.39;100.00
19128;BME280;9696;53.686;10.094;2023-04-28T06:00:53;101399.16;;;7.84;100.00
19128;BME280;9696;53.686;10.094;2023-04-28T06:03:26;101403.31;;;7.74;100.00
19128;BME280;9696;53.686;10.094;2023-04-28T06:05:55;101397.97;;;8.29;100.00
19128;BME280;9696;53.686;10.094;2023-04-28T06:08:25;101390.56;;;8.22;100.00
19128;BME280;9696;53.686;10.094;2023-04-28T06:10:54;101395.56;;;8.39;100.00
19128;BME280;9696;53.686;10.094;2023-04-28T06:13:23;101385.66;;;8.44;100.00
19128;BME280;9696;53.686;10.094;2023-04-28T06:15:52;101378.09;;;8.39;100.00
19128;BME280;9696;53.686;10.094;2023-04-28T06:18:22;101376.47;;;8.64;100.00
19128;BME280;9696;53.686;10.094;2023-04-28T06:20:52;101372.78;;;8.79;100.00
19128;BME280;9696;53.686;10.094;2023-04-28T06:23:21;101378.03;;;8.79;100.00
19128;BME280;9696;53.686;10.094;2023-04-28T06:25:51;101371.72;;;9.07;100.00
19128;BME280;9696;53.686;10.094;2023-04-28T06:28:20;101372.75;;;9.53;100.00
19128;BME280;9696;53.686;10.094;2023-04-28T06:30:49;101365.00;;;9.99;100.00
19128;BME280;9696;53.686;10.094;2023-04-28T06:33:18;101374.19;;;10.05;100.00
19128;BME280;9696;53.686;10.094;2023-04-28T06:35:48;101369.38;;;9.27;100.00
19128;BME280;9696;53.686;10.094;2023-04-28T06:38:19;101362.81;;;9.93;100.00
19128;BME280;9696;53.686;10.094;2023-04-28T06:40:48;101373.13;;;10.31;100.00
19128;BME280;9696;53.686;10.094;2023-04-28T06:43:19;101369.13;;;9.90;100.00
19128;BME280;9696;53.686;10.094;2023-04-28T06:46:06;101367.00;;;9.72;100.00
19128;BME280;9696;53.686;10.094;2023-04-28T06:48:36;101360.38;;;10.37;100.00
19128;BME280;9696;53.686;10.094;2023-04-28T06:51:06;101362.09;;;11.16;100.00
19128;BME280;9696;53.686;10.094;2023-04-28T06:53:36;101366.00;;;10.55;100.00
19128;BME280;9696;53.686;10.094;2023-04-28T06:56:08;101373.94;;;10.31;100.00
19128;BME280;9696;53.686;10.094;2023-04-28T06:58:38;101367.72;;;9.98;100.00
19128;BME280;9696;53.686;10.094;2023-04-28T07:01:08;101367.84;;;9.96;100.00
19128;BME280;9696;53.686;10.094;2023-04-28T07:03:37;101367.75;;;9.74;100.00
19128;BME280;9696;53.686;10.094;2023-04-28T07:06:07;101363.69;;;10.05;100.00
19128;BME280;9696;53.686;10.094;2023-04-28T07:08:38;101355.34;;;10.00;100.00
19128;BME280;9696;53.686;10.094;2023-04-28T07:11:08;101356.50;;;10.54;100.00
19128;BME280;9696;53.686;10.094;2023-04-28T07:13:37;101357.59;;;10.17;100.00
19128;BME280;9696;53.686;10.094;2023-04-28T07:16:06;101349.16;;;9.77;100.00
19128;BME280;9696;53.686;10.094;2023-04-28T07:18:37;101361.25;;;10.14;100.00
19128;BME280;9696;53.686;10.094;2023-04-28T07:21:06;101351.91;;;10.34;100.00
19128;BME280;9696;53.686;10.094;2023-04-28T07:23:37;101354.63;;;10.21;100.00
19128;BME280;9696;53.686;10.094;2023-04-28T07:26:07;101349.97;;;10.25;100.00
19128;BME280;9696;53.686;10.094;2023-04-28T07:28:36;101341.94;;;10.61;100.00
19128;BME280;9696;53.686;10.094;2023-04-28T07:31:05;101339.06;;;10.86;100.00
19128;BME280;9696;53.686;10.094;2023-04-28T07:33:35;101339.91;;;11.09;100.00
19128;BME280;9696;53.686;10.094;2023-04-28T07:36:04;101336.91;;;10.47;100.00
19128;BME280;9696;53.686;10.094;2023-04-28T07:38:34;101340.28;;;10.71;100.00
19128;BME280;9696;53.686;10.094;2023-04-28T07:41:05;101324.53;;;11.59;100.00
19128;BME280;9696;53.686;10.094;2023-04-28T07:43:38;101331.19;;;11.20;100.00
19128;BME280;9696;53.686;10.094;2023-04-28T07:46:07;101332.03;;;10.87;100.00
19128;BME280;9696;53.686;10.094;2023-04-28T07:48:37;101319.97;;;11.72;100.00
19128;BME280;9696;53.686;10.094;2023-04-28T07:51:06;101314.66;;;11.83;100.00
19128;BME280;9696;53.686;10.094;2023-04-28T07:53:35;101333.53;;;11.88;100.00
19128;BME280;9696;53.686;10.094;2023-04-28T07:56:06;101331.13;;;11.42;100.00
19128;BME280;9696;53.686;10.094;2023-04-28T07:58:35;101327.88;;;10.96;100.00
19128;BME280;9696;53.686;10.094;2023-04-28T08:01:05;101325.69;;;11.12;100.00
19128;BME280;9696;53.686;10.094;2023-04-28T08:03:34;101323.13;;;11.44;100.00
19128;BME280;9696;53.686;10.094;2023-04-28T08:06:03;101315.31;;;11.64;98.15
19128;BME280;9696;53.686;10.094;2023-04-28T08:08:33;101312.69;;;12.98;99.78
19128;BME280;9696;53.686;10.094;2023-04-28T08:11:02;101311.22;;;12.24;95.91
19128;BME280;9696;53.686;10.094;2023-04-28T08:13:33;101306.84;;;12.34;94.81
19128;BME280;9696;53.686;10.094;2023-04-28T08:16:03;101309.94;;;11.98;97.58
19128;BME280;9696;53.686;10.094;2023-04-28T08:18:32;101318.25;;;11.71;98.99
19128;BME280;9696;53.686;10.094;2023-04-28T08:21:01;101313.13;;;11.69;96.09
19128;BME280;9696;53.686;10.094;2023-04-28T08:23:30;101307.69;;;11.50;96.09
19128;BME280;9696;53.686;10.094;2023-04-28T08:25:59;101309.97;;;11.55;99.38
19128;BME280;9696;53.686;10.094;2023-04-28T08:28:28;101301.84;;;12.10;96.81
19128;BME280;9696;53.686;10.094;2023-04-28T08:30:59;101298.47;;;11.99;97.50
19128;BME280;9696;53.686;10.094;2023-04-28T08:33:28;101295.09;;;12.38;99.52
19128;BME280;9696;53.686;10.094;2023-04-28T08:35:57;101291.16;;;12.84;99.90
19128;BME280;9696;53.686;10.094;2023-04-28T08:38:27;101294.00;;;12.41;93.99
19128;BME280;9696;53.686;10.094;2023-04-28T08:40:56;101292.28;;;12.09;93.83
19128;BME280;9696;53.686;10.094;2023-04-28T08:43:25;101293.94;;;12.52;94.18
19128;BME280;9696;53.686;10.094;2023-04-28T08:45:55;101298.38;;;12.51;93.93
19128;BME280;9696;53.686;10.094;2023-04-28T08:48:26;101297.38;;;12.52;91.86
19128;BME280;9696;53.686;10.094;2023-04-28T08:50:57;101288.97;;;12.58;89.20
19128;BME280;9696;53.686;10.094;2023-04-28T08:53:30;101281.50;;;12.33;91.75
19128;BME280;9696;53.686;10.094;2023-04-28T08:56:11;101297.38;;;12.52;94.83
19128;BME280;9696;53.686;10.094;2023-04-28T08:58:44;101283.91;;;12.46;90.70
19128;BME280;9696;53.686;10.094;2023-04-28T09:01:14;101280.53;;;12.95;88.05
19128;BME280;9696;53.686;10.094;2023-04-28T09:03:45;101276.28;;;13.13;91.87
19128;BME280;9696;53.686;10.094;2023-04-28T09:06:17;101274.53;;;12.93;88.71
19128;BME280;9696;53.686;10.094;2023-04-28T09:08:47;101264.81;;;13.33;90.41
19128;BME280;9696;53.686;10.094;2023-04-28T09:11:17;101269.22;;;12.73;84.88
19128;BME280;9696;53.686;10.094;2023-04-28T09:13:48;101262.38;;;13.01;90.91
19128;BME280;9696;53.686;10.094;2023-04-28T09:16:18;101260.56;;;13.02;88.96
19128;BME280;9696;53.686;10.094;2023-04-28T09:18:56;101251.13;;;12.90;83.53
19128;BME280;9696;53.686;10.094;2023-04-28T09:21:27;101249.00;;;13.14;83.62
19128;BME280;9696;53.686;10.094;2023-04-28T09:23:57;101249.59;;;12.97;84.17
19128;BME280;9696;53.686;10.094;2023-04-28T09:26:27;101244.91;;;12.91;84.74
19128;BME280;9696;53.686;10.094;2023-04-28T09:29:18;101249.03;;;12.44;85.28
19128;BME280;9696;53.686;10.094;2023-04-28T09:31:48;101237.06;;;12.70;84.44
19128;BME280;9696;53.686;10.094;2023-04-28T09:34:20;101236.03;;;13.01;81.41
19128;BME280;9696;53.686;10.094;2023-04-28T09:36:50;101231.09;;;13.17;82.91
19128;BME280;9696;53.686;10.094;2023-04-28T09:39:29;101240.03;;;14.11;90.12
19128;BME280;9696;53.686;10.094;2023-04-28T09:42:00;101233.06;;;13.35;81.66
19128;BME280;9696;53.686;10.094;2023-04-28T09:44:31;101235.53;;;13.36;83.27
19128;BME280;9696;53.686;10.094;2023-04-28T09:47:00;101237.47;;;12.65;82.33
19128;BME280;9696;53.686;10.094;2023-04-28T09:49:54;101229.16;;;13.19;81.28
19128;BME280;9696;53.686;10.094;2023-04-28T09:52:24;101218.59;;;13.19;87.20
19128;BME280;9696;53.686;10.094;2023-04-28T09:54:54;101227.50;;;13.57;90.70
19128;BME280;9696;53.686;10.094;2023-04-28T09:57:24;101219.34;;;13.31;89.30
19128;BME280;9696;53.686;10.094;2023-04-28T09:59:54;101221.34;;;12.99;87.71
19128;BME280;9696;53.686;10.094;2023-04-28T10:02:25;101221.13;;;13.69;83.74
19128;BME280;9696;53.686;10.094;2023-04-28T10:04:59;101221.50;;;13.07;87.09
19128;BME280;9696;53.686;10.094;2023-04-28T10:07:30;101226.13;;;12.35;87.98
19128;BME280;9696;53.686;10.094;2023-04-28T10:10:03;101217.56;;;12.82;87.09
19128;BME280;9696;53.686;10.094;2023-04-28T10:12:32;101208.72;;;12.93;88.97
19128;BME280;9696;53.686;10.094;2023-04-28T10:15:02;101218.25;;;12.84;92.03
19128;BME280;9696;53.686;10.094;2023-04-28T10:17:32;101209.06;;;13.38;90.93
19128;BME280;9696;53.686;10.094;2023-04-28T10:20:04;101211.22;;;13.04;89.74
19128;BME280;9696;53.686;10.094;2023-04-28T10:22:46;101198.25;;;13.31;96.05
19128;BME280;9696;53.686;10.094;2023-04-28T10:25:26;101196.13;;;13.06;85.78
19128;BME280;9696;53.686;10.094;2023-04-28T10:27:57;101191.47;;;13.19;87.70
19128;BME280;9696;53.686;10.094;2023-04-28T10:30:27;101197.78;;;12.97;87.20
19128;BME280;9696;53.686;10.094;2023-04-28T10:33:22;101183.50;;;13.00;85.53
19128;BME280;9696;53.686;10.094;2023-04-28T10:35:55;101180.84;;;12.90;87.53
19128;BME280;9696;53.686;10.094;2023-04-28T10:38:24;101171.00;;;12.92;82.24
19128;BME280;9696;53.686;10.094;2023-04-28T10:40:53;101170.53;;;13.27;88.89
19128;BME280;9696;53.686;10.094;2023-04-28T10:43:35;101174.94;;;13.17;84.45
19128;BME280;9696;53.686;10.094;2023-04-28T10:46:07;101174.06;;;12.97;87.53
19128;BME280;9696;53.686;10.094;2023-04-28T10:49:04;101172.22;;;12.69;84.22
19128;BME280;9696;53.686;10.094;2023-04-28T10:51:35;101169.13;;;13.42;88.54
19128;BME280;9696;53.686;10.094;2023-04-28T10:54:14;101165.88;;;13.00;87.37
19128;BME280;9696;53.686;10.094;2023-04-28T10:57:16;101160.81;;;13.47;87.12
19128;BME280;9696;53.686;10.094;2023-04-28T10:59:46;101155.47;;;14.12;88.74
19128;BME280;9696;53.686;10.094;2023-04-28T11:02:38;101149.69;;;13.99;86.90
19128;BME280;9696;53.686;10.094;2023-04-28T11:05:20;101149.50;;;13.74;89.15
19128;BME280;9696;53.686;10.094;2023-04-28T11:11:19;101158.03;;;13.39;87.85
19128;BME280;9696;53.686;10.094;2023-04-28T11:13:50;101155.34;;;13.67;82.33
19128;BME280;9696;53.686;10.094;2023-04-28T11:16:21;101144.41;;;13.53;83.95
19128;BME280;9696;53.686;10.094;2023-04-28T11:19:01;101146.16;;;13.81;89.42
19128;BME280;9696;53.686;10.094;2023-04-28T11:21:34;101142.84;;;13.69;83.26
19128;BME280;9696;53.686;10.094;2023-04-28T11:24:08;101143.13;;;14.13;83.55
19128;BME280;9696;53.686;10.094;2023-04-28T11:26:40;101142.06;;;14.06;82.30
19128;BME280;9696;53.686;10.094;2023-04-28T11:29:11;101133.94;;;14.17;85.23
19128;BME280;9696;53.686;10.094;2023-04-28T11:31:48;101133.50;;;13.94;88.69
19128;BME280;9696;53.686;10.094;2023-04-28T11:34:19;101137.53;;;14.26;91.05
19128;BME280;9696;53.686;10.094;2023-04-28T11:36:49;101127.44;;;14.66;87.19
19128;BME280;9696;53.686;10.094;2023-04-28T11:39:25;101130.25;;;14.65;83.61
19128;BME280;9696;53.686;10.094;2023-04-28T11:41:58;101128.66;;;14.72;89.64
19128;BME280;9696;53.686;10.094;2023-04-28T11:44:30;101123.84;;;14.03;88.46
19128;BME280;9696;53.686;10.094;2023-04-28T11:47:01;101122.59;;;14.44;86.65
19128;BME280;9696;53.686;10.094;2023-04-28T11:49:40;101116.28;;;14.72;84.90
19128;BME280;9696;53.686;10.094;2023-04-28T11:52:10;101110.03;;;15.08;81.45
19128;BME280;9696;53.686;10.094;2023-04-28T11:54:39;101107.28;;;14.47;85.23
19128;BME280;9696;53.686;10.094;2023-04-28T11:57:18;101099.53;;;14.63;85.47
19128;BME280;9696;53.686;10.094;2023-04-28T11:59:48;101098.53;;;14.47;82.28
19128;BME280;9696;53.686;10.094;2023-04-28T12:02:24;101103.59;;;14.31;84.91
19128;BME280;9696;53.686;10.094;2023-04-28T12:05:03;101098.97;;;14.42;84.81
19128;BME280;9696;53.686;10.094;2023-04-28T12:07:40;101098.28;;;14.13;83.76
19128;BME280;9696;53.686;10.094;2023-04-28T12:10:12;101104.19;;;13.97;84.33
19128;BME280;9696;53.686;10.094;2023-04-28T12:12:44;101091.81;;;14.52;82.83
19128;BME280;9696;53.686;10.094;2023-04-28T12:15:20;101083.44;;;14.75;87.00
19128;BME280;9696;53.686;10.094;2023-04-28T12:17:51;101089.94;;;14.45;92.60
19128;BME280;9696;53.686;10.094;2023-04-28T12:20:34;101101.88;;;14.12;90.53
19128;BME280;9696;53.686;10.094;2023-04-28T12:23:04;101089.75;;;14.19;86.71
19128;BME280;9696;53.686;10.094;2023-04-28T12:25:42;101083.16;;;14.60;88.62
19128;BME280;9696;53.686;10.094;2023-04-28T12:28:13;101074.19;;;14.53;84.82
19128;BME280;9696;53.686;10.094;2023-04-28T12:30:42;101078.28;;;14.10;89.33
19128;BME280;9696;53.686;10.094;2023-04-28T12:33:22;101082.47;;;14.58;92.44
19128;BME280;9696;53.686;10.094;2023-04-28T12:35:52;101071.91;;;14.40;94.20
19128;BME280;9696;53.686;10.094;2023-04-28T12:38:24;101068.72;;;14.54;93.08
19128;BME280;9696;53.686;10.094;2023-04-28T12:40:54;101061.97;;;14.25;91.26
19128;BME280;9696;53.686;10.094;2023-04-28T12:43:24;101061.47;;;14.11;97.34
19128;BME280;9696;53.686;10.094;2023-04-28T12:45:55;101064.94;;;14.12;94.12
19128;BME280;9696;53.686;10.094;2023-04-28T12:48:25;101066.41;;;13.97;87.61
19128;BME280;9696;53.686;10.094;2023-04-28T12:50:54;101059.22;;;14.16;87.79
19128;BME280;9696;53.686;10.094;2023-04-28T12:53:24;101062.63;;;14.09;88.44
19128;BME280;9696;53.686;10.094;2023-04-28T12:55:53;101057.16;;;13.83;89.68
19128;BME280;9696;53.686;10.094;2023-04-28T12:58:24;101050.91;;;14.11;89.80
19128;BME280;9696;53.686;10.094;2023-04-28T13:00:53;101051.69;;;13.67;88.81
19128;BME280;9696;53.686;10.094;2023-04-28T13:03:22;101048.78;;;13.97;92.61
19128;BME280;9696;53.686;10.094;2023-04-28T13:05:51;101047.44;;;13.84;92.69
19128;BME280;9696;53.686;10.094;2023-04-28T13:08:21;101043.94;;;13.65;91.09
19128;BME280;9696;53.686;10.094;2023-04-28T13:10:50;101035.75;;;13.59;87.42
19128;BME280;9696;53.686;10.094;2023-04-28T13:13:19;101042.13;;;13.66;88.99
19128;BME280;9696;53.686;10.094;2023-04-28T13:15:50;101040.91;;;13.60;87.34